createdAt,value
2023-04-18T00:00:24.469Z,8.74
2023-04-18T00:02:53.974Z,8.71
2023-04-18T00:05:22.340Z,8.70
2023-04-18T00:07:52.819Z,8.68
2023-04-18T00:10:20.639Z,8.71
2023-04-18T00:12:48.886Z,8.76
2023-04-18T00:15:16.426Z,8.77
2023-04-18T00:17:44.004Z,8.71
2023-04-18T00:20:12.537Z,8.64
2023-04-18T00:22:42.551Z,8.57
2023-04-18T00:25:12.324Z,8.54
2023-04-18T00:27:40.641Z,8.50
2023-04-18T00:30:09.821Z,8.46
2023-04-18T00:32:37.689Z,8.45
2023-04-18T00:35:06.046Z,8.46
2023-04-18T00:37:33.610Z,8.49
2023-04-18T00:40:01.179Z,8.51
2023-04-18T00:42:30.408Z,8.50
2023-04-18T00:44:57.979Z,8.51
2023-04-18T00:47:25.529Z,8.53
2023-04-18T00:49:53.406Z,8.51
2023-04-18T00:52:21.855Z,8.50
2023-04-18T00:54:49.502Z,8.47
2023-04-18T00:57:17.469Z,8.46
2023-04-18T00:59:47.749Z,8.45
2023-04-18T01:02:15.784Z,8.47
2023-04-18T01:04:44.078Z,8.45
2023-04-18T01:07:11.748Z,8.43
2023-04-18T01:09:39.520Z,8.40
2023-04-18T01:12:07.644Z,8.43
2023-04-18T01:14:35.316Z,8.50
2023-04-18T01:17:04.381Z,8.55
2023-04-18T01:19:31.970Z,8.57
2023-04-18T01:21:59.510Z,8.56
2023-04-18T01:24:29.730Z,8.56
2023-04-18T01:26:57.280Z,8.57
2023-04-18T01:29:24.864Z,8.53
2023-04-18T01:31:52.672Z,8.51
2023-04-18T01:34:20.609Z,8.50
2023-04-18T01:36:48.296Z,8.52
2023-04-18T01:39:16.550Z,8.48
2023-04-18T01:41:45.562Z,8.50
2023-04-18T01:44:13.347Z,8.50
2023-04-18T01:46:41.207Z,8.48
2023-04-18T01:49:09.661Z,8.50
2023-04-18T01:51:38.845Z,8.52
2023-04-18T01:54:06.462Z,8.51
2023-04-18T01:56:33.928Z,8.53
2023-04-18T01:59:02.798Z,8.51
2023-04-18T02:01:30.420Z,8.50
2023-04-18T02:03:58.099Z,8.45
2023-04-18T02:06:26.022Z,8.39
2023-04-18T02:08:53.595Z,8.32
2023-04-18T02:11:21.099Z,8.27
2023-04-18T02:13:48.655Z,8.25
2023-04-18T02:16:17.582Z,8.23
2023-04-18T02:18:45.470Z,8.19
2023-04-18T02:21:13.165Z,8.20
2023-04-18T02:23:40.878Z,8.21
2023-04-18T02:26:08.526Z,8.27
2023-04-18T02:28:38.920Z,8.32
2023-04-18T02:31:07.340Z,8.32
2023-04-18T02:33:36.630Z,8.29
2023-04-18T02:36:04.837Z,8.31
2023-04-18T02:38:32.425Z,8.32
2023-04-18T02:40:59.998Z,8.32
2023-04-18T02:43:27.737Z,8.30
2023-04-18T02:45:55.955Z,8.28
2023-04-18T02:48:23.983Z,8.24
2023-04-18T02:50:52.881Z,8.19
2023-04-18T02:53:23.813Z,8.19
2023-04-18T02:55:51.484Z,8.20
2023-04-18T02:58:19.034Z,8.20
2023-04-18T03:00:46.602Z,8.18
2023-04-18T03:03:14.289Z,8.15
2023-04-18T03:05:41.946Z,8.13
2023-04-18T03:08:10.965Z,8.15
2023-04-18T03:10:39.093Z,8.20
2023-04-18T03:13:07.029Z,8.25
2023-04-18T03:15:34.658Z,8.30
2023-04-18T03:18:02.303Z,8.35
2023-04-18T03:20:29.948Z,8.36
2023-04-18T03:22:57.529Z,8.35
2023-04-18T03:25:26.638Z,8.35
2023-04-18T03:27:54.380Z,8.33
2023-04-18T03:30:22.465Z,8.28
2023-04-18T03:32:50.104Z,8.20
2023-04-18T03:35:17.693Z,8.17
2023-04-18T03:37:45.548Z,8.13
2023-04-18T03:40:13.335Z,8.15
2023-04-18T03:42:42.239Z,8.20
2023-04-18T03:45:10.897Z,8.18
2023-04-18T03:47:38.835Z,8.15
2023-04-18T03:50:07.433Z,8.10
2023-04-18T03:52:34.958Z,8.09
2023-04-18T03:55:02.565Z,8.08
2023-04-18T03:57:30.384Z,8.06
2023-04-18T03:59:59.395Z,8.04
2023-04-18T04:02:27.046Z,8.02
2023-04-18T04:04:54.759Z,7.97
2023-04-18T04:07:22.368Z,7.95
2023-04-18T04:09:50.184Z,7.96
2023-04-18T04:12:17.876Z,7.99
2023-04-18T04:14:45.439Z,8.02
2023-04-18T04:17:14.369Z,8.04
2023-04-18T04:19:41.871Z,7.99
2023-04-18T04:22:09.880Z,7.95
2023-04-18T04:24:38.688Z,7.95
2023-04-18T04:27:06.360Z,7.95
2023-04-18T04:29:35.260Z,7.93
2023-04-18T04:32:03.802Z,7.92
2023-04-18T04:34:34.384Z,7.93
2023-04-18T04:37:03.240Z,7.96
2023-04-18T04:39:30.874Z,8.00
2023-04-18T04:41:58.600Z,8.07
2023-04-18T04:44:26.854Z,8.13
2023-04-18T04:46:54.648Z,8.14
2023-04-18T04:49:22.302Z,8.11
2023-04-18T04:51:51.336Z,8.10
2023-04-18T04:54:18.937Z,8.11
2023-04-18T04:56:46.634Z,8.13
2023-04-18T04:59:14.274Z,8.12
2023-04-18T05:01:41.911Z,8.15
2023-04-18T05:04:09.564Z,8.19
2023-04-18T05:06:40.036Z,8.25
2023-04-18T05:09:09.302Z,8.28
2023-04-18T05:11:36.819Z,8.28
2023-04-18T05:14:04.404Z,8.27
2023-04-18T05:16:32.906Z,8.26
2023-04-18T05:19:00.769Z,8.25
2023-04-18T05:21:28.688Z,8.25
2023-04-18T05:23:56.767Z,8.24
2023-04-18T05:26:25.850Z,8.24
2023-04-18T05:28:53.386Z,8.22
2023-04-18T05:31:20.965Z,8.22
2023-04-18T05:33:48.507Z,8.29
2023-04-18T05:36:16.286Z,8.39
2023-04-18T05:38:43.804Z,8.46
2023-04-18T05:41:11.319Z,8.50
2023-04-18T05:43:40.945Z,8.51
2023-04-18T05:46:09.482Z,8.50
2023-04-18T05:48:36.992Z,8.48
2023-04-18T05:51:05.840Z,8.48
2023-04-18T05:53:33.304Z,8.45
2023-04-18T05:56:01.372Z,8.44
2023-04-18T05:58:29.594Z,8.43
2023-04-18T06:00:58.423Z,8.43
2023-04-18T06:03:26.077Z,8.48
2023-04-18T06:05:53.837Z,8.53
2023-04-18T06:08:21.395Z,8.54
2023-04-18T06:10:48.928Z,8.52
2023-04-18T06:13:16.398Z,8.47
2023-04-18T06:15:43.954Z,8.43
2023-04-18T06:18:12.865Z,8.40
2023-04-18T06:20:42.034Z,8.41
2023-04-18T06:23:09.559Z,8.42
2023-04-18T06:25:37.569Z,8.42
2023-04-18T06:28:05.373Z,8.46
2023-04-18T06:30:32.898Z,8.51
2023-04-18T06:33:00.662Z,8.54
2023-04-18T06:35:31.760Z,8.59
2023-04-18T06:37:59.269Z,8.61
2023-04-18T06:40:26.772Z,8.62
2023-04-18T06:42:54.266Z,8.69
2023-04-18T06:45:22.040Z,8.78
2023-04-18T06:47:51.344Z,8.93
2023-04-18T06:50:19.016Z,9.09
2023-04-18T06:52:47.879Z,9.12
2023-04-18T06:55:15.626Z,9.11
2023-04-18T06:57:43.668Z,9.14
2023-04-18T07:00:12.176Z,9.21
2023-04-18T07:02:41.053Z,9.35
2023-04-18T07:05:09.344Z,9.57
2023-04-18T07:07:36.852Z,9.80
2023-04-18T07:10:09.537Z,10.01
2023-04-18T07:12:37.037Z,10.20
2023-04-18T07:15:05.075Z,10.36
2023-04-18T07:17:32.703Z,10.46
2023-04-18T07:20:00.365Z,10.55
2023-04-18T07:22:27.893Z,10.60
2023-04-18T07:24:55.476Z,10.66
2023-04-18T07:27:24.355Z,10.66
2023-04-18T07:29:51.855Z,10.65
2023-04-18T07:32:19.468Z,10.67
2023-04-18T07:34:47.025Z,10.64
2023-04-18T07:37:15.188Z,10.51
2023-04-18T07:39:42.859Z,10.37
2023-04-18T07:42:11.304Z,10.26
2023-04-18T07:44:40.445Z,10.14
2023-04-18T07:47:10.298Z,10.06
2023-04-18T07:49:38.044Z,10.04
2023-04-18T07:52:06.153Z,10.09
2023-04-18T07:54:33.653Z,10.07
2023-04-18T07:57:01.193Z,10.04
2023-04-18T07:59:28.956Z,10.03
2023-04-18T08:01:57.827Z,10.02
2023-04-18T08:04:29.113Z,10.06
2023-04-18T08:06:57.556Z,10.10
2023-04-18T08:09:25.034Z,10.15
2023-04-18T08:11:54.965Z,10.17
2023-04-18T08:14:22.516Z,10.17
2023-04-18T08:16:50.044Z,10.28
2023-04-18T08:19:18.913Z,10.45
2023-04-18T08:21:46.482Z,10.65
2023-04-18T08:24:14.005Z,10.89
2023-04-18T08:26:41.519Z,11.25
2023-04-18T08:29:09.079Z,11.54
2023-04-18T08:31:36.672Z,11.93
2023-04-18T08:34:05.113Z,12.35
2023-04-18T08:36:35.837Z,12.59
2023-04-18T08:39:03.500Z,12.63
2023-04-18T08:41:36.786Z,12.63
2023-04-18T08:44:04.596Z,12.69
2023-04-18T08:46:35.797Z,12.94
2023-04-18T08:49:04.598Z,13.02
2023-04-18T08:51:33.929Z,13.28
2023-04-18T08:54:04.507Z,13.53
2023-04-18T08:56:32.205Z,13.64
2023-04-18T08:59:00.643Z,13.41
2023-04-18T09:01:56.979Z,13.14
2023-04-18T09:04:35.772Z,13.02
2023-04-18T09:07:04.152Z,12.89
2023-04-18T09:09:46.366Z,12.87
2023-04-18T09:12:15.505Z,12.87
2023-04-18T09:14:46.944Z,12.77
2023-04-18T09:17:16.517Z,12.70
2023-04-18T09:19:50.230Z,12.72
2023-04-18T09:22:18.513Z,12.76
2023-04-18T09:24:53.524Z,12.76
2023-04-18T09:27:22.892Z,12.75
2023-04-18T09:29:52.189Z,12.88
2023-04-18T09:32:26.780Z,13.25
2023-04-18T09:34:58.003Z,13.57
2023-04-18T09:37:26.742Z,13.71
2023-04-18T09:39:56.342Z,13.64
2023-04-18T09:42:24.631Z,13.84
2023-04-18T09:45:02.418Z,14.18
2023-04-18T09:47:30.731Z,14.38
2023-04-18T09:49:58.239Z,14.57
2023-04-18T09:52:26.785Z,14.86
2023-04-18T09:55:00.617Z,14.94
2023-04-18T09:57:29.830Z,14.77
2023-04-18T10:00:06.708Z,14.50
2023-04-18T10:02:40.229Z,14.25
2023-04-18T10:05:09.174Z,14.02
2023-04-18T10:07:37.194Z,13.86
2023-04-18T10:10:07.212Z,13.66
2023-04-18T10:12:35.165Z,13.51
2023-04-18T10:15:03.161Z,13.42
2023-04-18T10:17:36.721Z,13.36
2023-04-18T10:20:07.946Z,13.35
2023-04-18T10:22:36.538Z,13.37
2023-04-18T10:25:04.568Z,13.36
2023-04-18T10:27:58.278Z,13.27
2023-04-18T10:30:52.345Z,13.15
2023-04-18T10:33:31.820Z,13.02
2023-04-18T10:36:04.883Z,12.89
2023-04-18T10:38:33.003Z,12.67
2023-04-18T10:41:21.268Z,12.55
2023-04-18T10:44:23.355Z,12.51
2023-04-18T10:47:30.979Z,12.47
2023-04-18T10:50:01.226Z,12.42
2023-04-18T10:52:30.277Z,12.39
2023-04-18T10:55:08.568Z,12.36
2023-04-18T10:57:41.063Z,12.36
2023-04-18T11:00:12.640Z,12.40
2023-04-18T11:02:41.466Z,12.42
2023-04-18T11:05:09.985Z,12.48
2023-04-18T11:07:39.009Z,12.54
2023-04-18T11:10:08.706Z,12.57
2023-04-18T11:12:38.718Z,12.59
2023-04-18T11:15:14.529Z,12.61
2023-04-18T11:17:42.462Z,12.71
2023-04-18T11:20:12.768Z,12.92
2023-04-18T11:22:48.282Z,13.03
2023-04-18T11:25:16.347Z,13.06
2023-04-18T11:27:45.313Z,13.03
2023-04-18T11:30:15.634Z,13.03
2023-04-18T11:32:43.520Z,13.01
2023-04-18T11:35:12.780Z,12.98
2023-04-18T11:37:41.972Z,12.98
2023-04-18T11:40:10.892Z,13.04
2023-04-18T11:42:39.869Z,13.07
2023-04-18T11:45:11.159Z,13.11
2023-04-18T11:47:42.831Z,13.09
2023-04-18T11:50:11.988Z,13.08
2023-04-18T11:52:41.393Z,13.09
2023-04-18T11:55:14.504Z,13.13
2023-04-18T11:57:42.595Z,13.20
2023-04-18T12:00:12.309Z,13.19
2023-04-18T12:02:43.134Z,13.13
2023-04-18T12:05:11.874Z,13.09
2023-04-18T12:07:41.193Z,13.12
2023-04-18T12:10:10.378Z,13.15
2023-04-18T12:12:38.055Z,13.18
2023-04-18T12:15:09.213Z,13.26
2023-04-18T12:17:37.916Z,13.47
2023-04-18T12:20:09.636Z,13.64
2023-04-18T12:22:42.974Z,13.71
2023-04-18T12:25:25.916Z,13.75
2023-04-18T12:27:56.840Z,13.82
2023-04-18T12:30:27.451Z,13.83
2023-04-18T12:32:56.838Z,13.86
2023-04-18T12:35:26.769Z,13.81
2023-04-18T12:37:56.060Z,13.81
2023-04-18T12:40:26.082Z,13.79
2023-04-18T12:42:54.889Z,13.74
2023-04-18T12:45:24.072Z,13.68
2023-04-18T12:47:52.926Z,13.63
2023-04-18T12:50:22.041Z,13.59
2023-04-18T12:52:52.850Z,13.55
2023-04-18T12:55:20.827Z,13.49
2023-04-18T12:57:48.792Z,13.47
2023-04-18T13:00:16.608Z,13.42
2023-04-18T13:02:45.894Z,13.39
2023-04-18T13:05:16.042Z,13.37
2023-04-18T13:07:44.403Z,13.38
2023-04-18T13:10:15.366Z,13.38
2023-04-18T13:12:43.072Z,13.40
2023-04-18T13:15:11.744Z,13.41
2023-04-18T13:17:40.159Z,13.46
2023-04-18T13:20:10.498Z,13.51
2023-04-18T13:22:38.458Z,13.59
2023-04-18T13:25:08.130Z,13.66
2023-04-18T13:27:37.686Z,13.70
2023-04-18T13:30:07.948Z,13.73
2023-04-18T13:32:36.162Z,13.74
2023-04-18T13:35:03.754Z,13.75
2023-04-18T13:37:31.491Z,13.75
2023-04-18T13:39:58.994Z,13.74
2023-04-18T13:42:26.590Z,13.77
2023-04-18T13:44:55.550Z,13.84
2023-04-18T13:47:23.130Z,13.92
2023-04-18T13:49:50.710Z,13.98
2023-04-18T13:52:18.551Z,14.04
2023-04-18T13:54:46.301Z,14.05
2023-04-18T13:57:14.647Z,14.09
2023-04-18T13:59:42.284Z,14.13
2023-04-18T14:02:11.791Z,14.16
2023-04-18T14:04:39.765Z,14.21
2023-04-18T14:07:07.986Z,14.21
2023-04-18T14:09:35.756Z,14.24
2023-04-18T14:12:03.364Z,14.25
2023-04-18T14:14:30.977Z,14.26
2023-04-18T14:16:58.606Z,14.27
2023-04-18T14:19:27.880Z,14.25
2023-04-18T14:21:55.608Z,14.22
2023-04-18T14:24:23.164Z,14.21
2023-04-18T14:26:50.701Z,14.22
2023-04-18T14:29:18.249Z,14.19
2023-04-18T14:31:46.075Z,14.16
2023-04-18T14:34:13.725Z,14.13
2023-04-18T14:36:42.633Z,14.09
2023-04-18T14:39:11.057Z,14.01
2023-04-18T14:41:38.825Z,13.90
2023-04-18T14:44:06.472Z,13.78
2023-04-18T14:46:34.144Z,13.65
2023-04-18T14:49:01.872Z,13.53
2023-04-18T14:51:29.398Z,13.46
2023-04-18T14:53:58.295Z,13.41
2023-04-18T14:56:26.533Z,13.35
2023-04-18T14:58:54.146Z,13.29
2023-04-18T15:01:21.909Z,13.25
2023-04-18T15:03:51.312Z,13.18
2023-04-18T15:06:19.054Z,13.13
2023-04-18T15:08:47.152Z,13.10
2023-04-18T15:11:16.054Z,13.10
2023-04-18T15:13:44.455Z,13.07
2023-04-18T15:16:12.484Z,13.06
2023-04-18T15:18:40.184Z,13.05
2023-04-18T15:21:07.754Z,13.06
2023-04-18T15:23:35.550Z,13.07
2023-04-18T15:26:03.138Z,13.07
2023-04-18T15:28:32.302Z,13.05
2023-04-18T15:30:59.913Z,13.06
2023-04-18T15:33:27.455Z,13.07
2023-04-18T15:35:56.316Z,13.07
2023-04-18T15:38:23.967Z,13.07
2023-04-18T15:40:51.748Z,13.06
2023-04-18T15:43:19.293Z,13.01
2023-04-18T15:45:48.878Z,12.99
2023-04-18T15:48:16.527Z,12.97
2023-04-18T15:50:44.111Z,12.93
2023-04-18T15:53:11.706Z,12.87
2023-04-18T15:55:39.524Z,12.85
2023-04-18T15:58:07.488Z,12.82
2023-04-18T16:00:35.084Z,12.80
2023-04-18T16:03:04.649Z,12.79
2023-04-18T16:05:32.441Z,12.77
2023-04-18T16:08:00.014Z,12.75
2023-04-18T16:10:27.640Z,12.73
2023-04-18T16:12:55.286Z,12.74
2023-04-18T16:15:22.849Z,12.75
2023-04-18T16:17:50.595Z,12.75
2023-04-18T16:20:19.573Z,12.73
2023-04-18T16:22:47.789Z,12.70
2023-04-18T16:25:15.498Z,12.69
2023-04-18T16:27:43.518Z,12.68
2023-04-18T16:30:11.620Z,12.67
2023-04-18T16:32:39.390Z,12.65
2023-04-18T16:35:10.059Z,12.62
2023-04-18T16:37:39.595Z,12.59
2023-04-18T16:40:09.848Z,12.54
2023-04-18T16:42:37.594Z,12.51
2023-04-18T16:45:05.865Z,12.48
2023-04-18T16:47:33.555Z,12.46
2023-04-18T16:50:01.091Z,12.44
2023-04-18T16:52:28.716Z,12.42
2023-04-18T16:54:57.583Z,12.38
2023-04-18T16:57:25.272Z,12.35
2023-04-18T16:59:52.890Z,12.31
2023-04-18T17:02:20.574Z,12.29
2023-04-18T17:04:48.990Z,12.28
2023-04-18T17:07:16.630Z,12.27
2023-04-18T17:09:44.117Z,12.25
2023-04-18T17:12:13.241Z,12.22
2023-04-18T17:14:40.789Z,12.21
2023-04-18T17:17:08.379Z,12.21
2023-04-18T17:19:36.040Z,12.21
2023-04-18T17:22:03.600Z,12.21
2023-04-18T17:24:31.560Z,12.24
2023-04-18T17:27:00.220Z,12.22
2023-04-18T17:29:29.128Z,12.21
2023-04-18T17:31:56.634Z,12.19
2023-04-18T17:34:24.226Z,12.17
2023-04-18T17:36:51.711Z,12.16
2023-04-18T17:39:19.231Z,12.15
2023-04-18T17:41:47.016Z,12.14
2023-04-18T17:44:14.490Z,12.14
2023-04-18T17:46:43.331Z,12.11
2023-04-18T17:49:11.283Z,12.11
2023-04-18T17:51:38.853Z,12.10
2023-04-18T17:54:08.028Z,12.07
2023-04-18T17:56:35.659Z,12.03
2023-04-18T17:59:03.206Z,11.99
2023-04-18T18:01:31.374Z,11.95
2023-04-18T18:04:00.508Z,11.92
2023-04-18T18:06:28.119Z,11.89
2023-04-18T18:08:55.922Z,11.88
2023-04-18T18:11:23.746Z,11.85
2023-04-18T18:13:54.515Z,11.84
2023-04-18T18:16:22.781Z,11.82
2023-04-18T18:18:50.865Z,11.79
2023-04-18T18:21:19.999Z,11.78
2023-04-18T18:23:47.513Z,11.77
2023-04-18T18:26:15.056Z,11.75
2023-04-18T18:28:42.569Z,11.74
2023-04-18T18:31:10.911Z,11.72
2023-04-18T18:33:38.506Z,11.65
2023-04-18T18:36:06.730Z,11.62
2023-04-18T18:38:35.630Z,11.57
2023-04-18T18:41:04.555Z,11.52
2023-04-18T18:43:32.442Z,11.47
2023-04-18T18:46:00.044Z,11.46
2023-04-18T18:48:28.259Z,11.41
2023-04-18T18:50:56.548Z,11.37
2023-04-18T18:53:24.073Z,11.33
2023-04-18T18:55:52.929Z,11.31
2023-04-18T18:58:20.649Z,11.26
2023-04-18T19:00:48.207Z,11.24
2023-04-18T19:03:18.350Z,11.20
2023-04-18T19:05:45.973Z,11.14
2023-04-18T19:08:13.567Z,11.11
2023-04-18T19:10:41.905Z,11.06
2023-04-18T19:13:10.809Z,11.05
2023-04-18T19:15:38.567Z,11.03
2023-04-18T19:18:06.242Z,10.99
2023-04-18T19:20:33.789Z,10.95
2023-04-18T19:23:01.323Z,10.90
2023-04-18T19:25:28.876Z,10.86
2023-04-18T19:27:56.433Z,10.82
2023-04-18T19:30:25.400Z,10.78
2023-04-18T19:32:52.945Z,10.75
2023-04-18T19:35:20.499Z,10.72
2023-04-18T19:37:48.013Z,10.68
2023-04-18T19:40:15.528Z,10.64
2023-04-18T19:42:43.052Z,10.60
2023-04-18T19:45:12.769Z,10.55
2023-04-18T19:47:43.919Z,10.52
2023-04-18T19:50:12.084Z,10.51
2023-04-18T19:52:39.640Z,10.52
2023-04-18T19:55:08.283Z,10.51
2023-04-18T19:57:39.346Z,10.51
2023-04-18T20:00:08.801Z,10.49
2023-04-18T20:02:36.698Z,10.48
2023-04-18T20:05:07.349Z,10.46
2023-04-18T20:07:35.596Z,10.44
2023-04-18T20:10:04.288Z,10.42
2023-04-18T20:12:32.112Z,10.42
2023-04-18T20:14:59.693Z,10.40
2023-04-18T20:17:27.704Z,10.38
2023-04-18T20:19:57.070Z,10.36
2023-04-18T20:22:26.750Z,10.35
2023-04-18T20:24:57.052Z,10.37
2023-04-18T20:27:24.821Z,10.38
2023-04-18T20:29:52.530Z,10.37
2023-04-18T20:32:20.063Z,10.37
2023-04-18T20:34:47.589Z,10.40
2023-04-18T20:37:19.885Z,10.40
2023-04-18T20:39:48.796Z,10.40
2023-04-18T20:42:16.320Z,10.38
2023-04-18T20:44:46.655Z,10.38
2023-04-18T20:47:15.668Z,10.37
2023-04-18T20:49:43.514Z,10.34
2023-04-18T20:52:11.060Z,10.31
2023-04-18T20:54:38.569Z,10.28
2023-04-18T20:57:07.409Z,10.25
2023-04-18T20:59:35.014Z,10.24
2023-04-18T21:02:03.470Z,10.21
2023-04-18T21:04:31.231Z,10.20
2023-04-18T21:06:59.448Z,10.21
2023-04-18T21:09:26.947Z,10.20
2023-04-18T21:11:54.467Z,10.20
2023-04-18T21:14:23.645Z,10.21
2023-04-18T21:16:51.143Z,10.18
2023-04-18T21:19:18.662Z,10.17
2023-04-18T21:21:46.180Z,10.16
2023-04-18T21:24:13.918Z,10.15
2023-04-18T21:26:41.672Z,10.13
2023-04-18T21:29:09.260Z,10.10
2023-04-18T21:31:38.266Z,10.09
2023-04-18T21:34:06.674Z,10.08
2023-04-18T21:36:34.386Z,10.06
2023-04-18T21:39:02.206Z,10.05
2023-04-18T21:41:29.908Z,10.04
2023-04-18T21:43:57.449Z,10.05
2023-04-18T21:46:25.080Z,10.07
2023-04-18T21:48:54.066Z,10.06
2023-04-18T21:51:21.659Z,10.04
2023-04-18T21:53:49.164Z,10.01
2023-04-18T21:56:17.549Z,9.99
2023-04-18T21:58:45.268Z,9.95
2023-04-18T22:01:12.887Z,9.93
2023-04-18T22:03:40.744Z,9.94
2023-04-18T22:06:09.787Z,9.90
2023-04-18T22:08:37.385Z,9.91
2023-04-18T22:11:05.582Z,9.89
2023-04-18T22:13:33.705Z,9.90
2023-04-18T22:16:03.351Z,9.88
2023-04-18T22:18:33.822Z,9.85
2023-04-18T22:21:02.324Z,9.87
2023-04-18T22:23:31.576Z,9.88
2023-04-18T22:25:59.325Z,9.92
2023-04-18T22:28:27.945Z,9.93
2023-04-18T22:30:55.538Z,9.89
2023-04-18T22:33:23.097Z,9.88
2023-04-18T22:35:50.698Z,9.89
2023-04-18T22:38:18.283Z,9.89
2023-04-18T22:40:47.134Z,9.86
2023-04-18T22:43:14.682Z,9.83
2023-04-18T22:45:42.195Z,9.82
2023-04-18T22:48:12.175Z,9.81
2023-04-18T22:50:42.826Z,9.82
2023-04-18T22:53:10.946Z,9.81
2023-04-18T22:55:42.244Z,9.79
2023-04-18T22:58:12.154Z,9.82
2023-04-18T23:00:39.770Z,9.86
2023-04-18T23:03:07.371Z,9.88
2023-04-18T23:05:35.319Z,9.87
2023-04-18T23:08:02.952Z,9.82
2023-04-18T23:10:30.801Z,9.76
2023-04-18T23:12:58.310Z,9.73
2023-04-18T23:15:27.202Z,9.71
2023-04-18T23:17:55.008Z,9.68
2023-04-18T23:20:23.823Z,9.64
2023-04-18T23:22:51.784Z,9.61
2023-04-18T23:25:20.232Z,9.60
2023-04-18T23:27:47.824Z,9.58
2023-04-18T23:30:15.479Z,9.58
2023-04-18T23:32:44.384Z,9.58
2023-04-18T23:35:12.328Z,9.57
2023-04-18T23:37:40.148Z,9.58
2023-04-18T23:40:09.135Z,9.58
2023-04-18T23:42:36.983Z,9.58
2023-04-18T23:45:05.813Z,9.57
2023-04-18T23:47:33.448Z,9.57
2023-04-18T23:50:02.439Z,9.55
2023-04-18T23:52:30.048Z,9.54
2023-04-18T23:55:00.330Z,9.52
2023-04-18T23:57:27.959Z,9.49
2023-04-18T23:59:55.469Z,9.47
